CheckWX is a tool to help pilots better visualize weather data.  It is not intended as a substitute for an official pre-flight weather briefing.

15:12:58 UTC

KNLC METAR
Lemoore NAS (Reeves Field) Airport
Lemoore, California, USA
Current

17 mins ago

KNLC 291456Z 33009KT 10SM BKN025 07/06 A3023 RMK AO2 SLP238 RH/89 T00720056 55004
Observed
Jan-29 @ 14:56 UTC
Wind
  • 330° at 9 KTS
Visibility
10 SM
Flight Rules
MVFR
Cloud Levels
  • Broken at 2,500' AGL
Temperature
C / 45°F
Dewpoint
C / 43°F
Humidity
93%
Altimeter
30.23" Hg
Pressure
1023.72 hPa
Previous

1 hour ago

KNLC 291356Z AUTO 36005KT 10SM CLR 06/04 A3022 RMK AO2 SLP235 T00560039
Observed
Jan-29 @ 13:56 UTC
Wind
  • 360° at 5 KTS
Visibility
10 SM
Flight Rules
VFR
Cloud Levels
  • Clear skies
Temperature
C / 43°F
Dewpoint
C / 39°F
Humidity
87%
Altimeter
30.22" Hg
Pressure
1023.42 hPa
Previous

2 hours ago

KNLC 291256Z AUTO 30009KT 10SM CLR 06/05 A3022 RMK AO2 SLP236 T00610050
Observed
Jan-29 @ 12:56 UTC
Wind
  • 300° at 9 KTS
Visibility
10 SM
Flight Rules
VFR
Cloud Levels
  • Clear skies
Temperature
C / 43°F
Dewpoint
C / 41°F
Humidity
93%
Altimeter
30.22" Hg
Pressure
1023.42 hPa